sensor_id;sensor_type;location;lat;lon;timestamp;P1;durP1;ratioP1;P2;durP2;ratioP2
36855;SDS011;22788;51.434;6.786;2022-08-01T00:01:48;3.45;;;2.70;;
36855;SDS011;22788;51.434;6.786;2022-08-01T00:04:14;6.13;;;3.10;;
36855;SDS011;22788;51.434;6.786;2022-08-01T00:06:40;3.00;;;2.70;;
36855;SDS011;22788;51.434;6.786;2022-08-01T00:09:07;4.05;;;3.17;;
36855;SDS011;22788;51.434;6.786;2022-08-01T00:11:34;4.35;;;3.20;;
36855;SDS011;22788;51.434;6.786;2022-08-01T00:14:00;3.15;;;2.85;;
36855;SDS011;22788;51.434;6.786;2022-08-01T00:16:26;3.47;;;3.00;;
36855;SDS011;22788;51.434;6.786;2022-08-01T00:18:52;3.40;;;3.10;;
36855;SDS011;22788;51.434;6.786;2022-08-01T00:21:19;2.78;;;2.58;;
36855;SDS011;22788;51.434;6.786;2022-08-01T00:23:45;4.47;;;3.53;;
36855;SDS011;22788;51.434;6.786;2022-08-01T00:26:11;4.45;;;4.05;;
36855;SDS011;22788;51.434;6.786;2022-08-01T00:28:38;5.97;;;3.38;;
36855;SDS011;22788;51.434;6.786;2022-08-01T00:31:05;6.30;;;4.13;;
36855;SDS011;22788;51.434;6.786;2022-08-01T00:33:31;3.90;;;2.78;;
36855;SDS011;22788;51.434;6.786;2022-08-01T00:35:57;4.03;;;2.83;;
36855;SDS011;22788;51.434;6.786;2022-08-01T00:38:23;5.45;;;3.50;;
36855;SDS011;22788;51.434;6.786;2022-08-01T00:40:50;4.75;;;3.97;;
36855;SDS011;22788;51.434;6.786;2022-08-01T00:43:16;4.95;;;2.92;;
36855;SDS011;22788;51.434;6.786;2022-08-01T00:45:43;4.13;;;3.22;;
36855;SDS011;22788;51.434;6.786;2022-08-01T00:48:10;4.88;;;2.70;;
36855;SDS011;22788;51.434;6.786;2022-08-01T00:50:36;5.75;;;3.85;;
36855;SDS011;22788;51.434;6.786;2022-08-01T00:53:02;5.82;;;3.92;;
36855;SDS011;22788;51.434;6.786;2022-08-01T00:55:29;5.18;;;2.80;;
36855;SDS011;22788;51.434;6.786;2022-08-01T00:57:57;3.40;;;3.10;;
36855;SDS011;22788;51.434;6.786;2022-08-01T01:00:23;3.95;;;2.90;;
36855;SDS011;22788;51.434;6.786;2022-08-01T01:02:52;5.25;;;3.45;;
36855;SDS011;22788;51.434;6.786;2022-08-01T01:05:18;3.55;;;3.00;;
36855;SDS011;22788;51.434;6.786;2022-08-01T01:07:46;5.07;;;2.97;;
36855;SDS011;22788;51.434;6.786;2022-08-01T01:10:20;4.30;;;2.65;;
36855;SDS011;22788;51.434;6.786;2022-08-01T01:12:50;4.25;;;3.30;;
36855;SDS011;22788;51.434;6.786;2022-08-01T01:15:22;4.80;;;3.38;;
36855;SDS011;22788;51.434;6.786;2022-08-01T01:17:53;6.15;;;3.50;;
36855;SDS011;22788;51.434;6.786;2022-08-01T01:20:23;5.72;;;3.67;;
36855;SDS011;22788;51.434;6.786;2022-08-01T01:23:24;6.32;;;3.28;;
36855;SDS011;22788;51.434;6.786;2022-08-01T01:26:10;3.97;;;2.95;;
36855;SDS011;22788;51.434;6.786;2022-08-01T01:28:54;3.42;;;2.72;;
36855;SDS011;22788;51.434;6.786;2022-08-01T01:31:27;4.50;;;2.90;;
36855;SDS011;22788;51.434;6.786;2022-08-01T01:33:54;3.80;;;3.00;;
36855;SDS011;22788;51.434;6.786;2022-08-01T01:36:21;3.70;;;2.70;;
36855;SDS011;22788;51.434;6.786;2022-08-01T01:38:49;5.45;;;3.20;;
36855;SDS011;22788;51.434;6.786;2022-08-01T01:41:17;4.30;;;3.22;;
36855;SDS011;22788;51.434;6.786;2022-08-01T01:43:44;3.78;;;2.85;;
36855;SDS011;22788;51.434;6.786;2022-08-01T01:46:15;6.75;;;3.90;;
36855;SDS011;22788;51.434;6.786;2022-08-01T01:48:44;4.68;;;3.20;;
36855;SDS011;22788;51.434;6.786;2022-08-01T01:51:11;3.85;;;3.05;;
36855;SDS011;22788;51.434;6.786;2022-08-01T01:53:39;5.45;;;3.22;;
36855;SDS011;22788;51.434;6.786;2022-08-01T01:56:06;4.93;;;3.40;;
36855;SDS011;22788;51.434;6.786;2022-08-01T01:58:35;5.78;;;3.33;;
36855;SDS011;22788;51.434;6.786;2022-08-01T02:01:03;3.67;;;3.08;;
36855;SDS011;22788;51.434;6.786;2022-08-01T02:03:31;5.10;;;3.33;;
36855;SDS011;22788;51.434;6.786;2022-08-01T02:06:00;4.18;;;3.20;;
36855;SDS011;22788;51.434;6.786;2022-08-01T02:08:27;5.55;;;3.55;;
36855;SDS011;22788;51.434;6.786;2022-08-01T02:10:56;5.93;;;3.58;;
36855;SDS011;22788;51.434;6.786;2022-08-01T02:13:23;4.22;;;2.97;;
36855;SDS011;22788;51.434;6.786;2022-08-01T02:15:50;3.75;;;3.05;;
36855;SDS011;22788;51.434;6.786;2022-08-01T02:18:16;5.47;;;3.25;;
36855;SDS011;22788;51.434;6.786;2022-08-01T02:20:44;4.00;;;3.60;;
36855;SDS011;22788;51.434;6.786;2022-08-01T02:23:11;4.80;;;3.05;;
36855;SDS011;22788;51.434;6.786;2022-08-01T02:25:38;3.78;;;2.97;;
36855;SDS011;22788;51.434;6.786;2022-08-01T02:28:09;5.20;;;3.42;;
36855;SDS011;22788;51.434;6.786;2022-08-01T02:30:39;4.78;;;4.28;;
36855;SDS011;22788;51.434;6.786;2022-08-01T02:33:11;5.45;;;3.75;;
36855;SDS011;22788;51.434;6.786;2022-08-01T02:35:40;3.88;;;3.38;;
36855;SDS011;22788;51.434;6.786;2022-08-01T02:38:10;4.93;;;3.60;;
36855;SDS011;22788;51.434;6.786;2022-08-01T02:40:39;3.90;;;3.45;;
36855;SDS011;22788;51.434;6.786;2022-08-01T02:43:09;7.28;;;5.47;;
36855;SDS011;22788;51.434;6.786;2022-08-01T02:45:39;7.68;;;5.78;;
36855;SDS011;22788;51.434;6.786;2022-08-01T02:48:11;8.18;;;4.00;;
36855;SDS011;22788;51.434;6.786;2022-08-01T02:50:39;5.70;;;3.55;;
36855;SDS011;22788;51.434;6.786;2022-08-01T02:53:10;4.20;;;3.80;;
36855;SDS011;22788;51.434;6.786;2022-08-01T02:55:39;3.85;;;3.55;;
36855;SDS011;22788;51.434;6.786;2022-08-01T02:58:06;5.60;;;3.63;;
36855;SDS011;22788;51.434;6.786;2022-08-01T03:00:33;4.07;;;3.50;;
36855;SDS011;22788;51.434;6.786;2022-08-01T03:03:00;4.13;;;3.63;;
36855;SDS011;22788;51.434;6.786;2022-08-01T03:05:28;6.45;;;4.03;;
36855;SDS011;22788;51.434;6.786;2022-08-01T03:07:57;4.22;;;3.78;;
36855;SDS011;22788;51.434;6.786;2022-08-01T03:10:27;6.63;;;4.20;;
36855;SDS011;22788;51.434;6.786;2022-08-01T03:12:54;7.15;;;4.78;;
36855;SDS011;22788;51.434;6.786;2022-08-01T03:15:24;4.80;;;4.13;;
36855;SDS011;22788;51.434;6.786;2022-08-01T03:17:52;4.95;;;4.07;;
36855;SDS011;22788;51.434;6.786;2022-08-01T03:20:20;3.90;;;3.60;;
36855;SDS011;22788;51.434;6.786;2022-08-01T03:22:48;4.35;;;3.83;;
36855;SDS011;22788;51.434;6.786;2022-08-01T03:25:16;4.28;;;3.85;;
36855;SDS011;22788;51.434;6.786;2022-08-01T03:27:50;6.85;;;4.25;;
36855;SDS011;22788;51.434;6.786;2022-08-01T03:30:20;6.93;;;4.18;;
36855;SDS011;22788;51.434;6.786;2022-08-01T03:32:47;5.68;;;4.40;;
36855;SDS011;22788;51.434;6.786;2022-08-01T03:35:13;6.00;;;3.80;;
36855;SDS011;22788;51.434;6.786;2022-08-01T03:37:40;5.25;;;4.32;;
36855;SDS011;22788;51.434;6.786;2022-08-01T03:40:11;7.68;;;5.85;;
36855;SDS011;22788;51.434;6.786;2022-08-01T03:42:44;4.95;;;4.35;;
36855;SDS011;22788;51.434;6.786;2022-08-01T03:45:15;9.02;;;4.18;;
36855;SDS011;22788;51.434;6.786;2022-08-01T03:47:47;4.88;;;4.38;;
36855;SDS011;22788;51.434;6.786;2022-08-01T03:50:17;6.00;;;4.53;;
36855;SDS011;22788;51.434;6.786;2022-08-01T03:52:46;5.15;;;4.35;;
36855;SDS011;22788;51.434;6.786;2022-08-01T03:55:14;6.72;;;4.43;;
36855;SDS011;22788;51.434;6.786;2022-08-01T03:57:42;5.35;;;3.97;;
36855;SDS011;22788;51.434;6.786;2022-08-01T04:00:10;4.57;;;4.10;;
36855;SDS011;22788;51.434;6.786;2022-08-01T04:02:37;6.18;;;4.60;;
36855;SDS011;22788;51.434;6.786;2022-08-01T04:05:04;4.53;;;4.10;;
36855;SDS011;22788;51.434;6.786;2022-08-01T04:07:32;4.68;;;3.97;;
36855;SDS011;22788;51.434;6.786;2022-08-01T04:09:59;5.35;;;4.38;;
36855;SDS011;22788;51.434;6.786;2022-08-01T04:12:25;5.28;;;4.30;;
36855;SDS011;22788;51.434;6.786;2022-08-01T04:14:51;5.07;;;4.25;;
36855;SDS011;22788;51.434;6.786;2022-08-01T04:17:18;5.35;;;3.88;;
36855;SDS011;22788;51.434;6.786;2022-08-01T04:19:45;6.40;;;4.28;;
36855;SDS011;22788;51.434;6.786;2022-08-01T04:22:13;6.00;;;4.55;;
36855;SDS011;22788;51.434;6.786;2022-08-01T04:24:40;6.72;;;3.83;;
36855;SDS011;22788;51.434;6.786;2022-08-01T04:27:08;6.15;;;4.40;;
36855;SDS011;22788;51.434;6.786;2022-08-01T04:29:38;6.60;;;3.78;;
36855;SDS011;22788;51.434;6.786;2022-08-01T04:32:07;6.32;;;4.57;;
36855;SDS011;22788;51.434;6.786;2022-08-01T04:34:38;5.65;;;4.43;;
36855;SDS011;22788;51.434;6.786;2022-08-01T04:37:07;6.15;;;4.55;;
36855;SDS011;22788;51.434;6.786;2022-08-01T04:39:35;6.60;;;4.90;;
36855;SDS011;22788;51.434;6.786;2022-08-01T04:42:04;6.10;;;4.32;;
36855;SDS011;22788;51.434;6.786;2022-08-01T04:44:31;7.90;;;4.75;;
36855;SDS011;22788;51.434;6.786;2022-08-01T04:46:58;5.28;;;4.10;;
36855;SDS011;22788;51.434;6.786;2022-08-01T04:49:25;5.22;;;4.53;;
36855;SDS011;22788;51.434;6.786;2022-08-01T04:51:53;7.03;;;4.72;;
36855;SDS011;22788;51.434;6.786;2022-08-01T04:54:20;8.50;;;5.80;;
36855;SDS011;22788;51.434;6.786;2022-08-01T04:56:46;6.80;;;4.68;;
36855;SDS011;22788;51.434;6.786;2022-08-01T04:59:13;5.15;;;4.65;;
36855;SDS011;22788;51.434;6.786;2022-08-01T05:01:39;9.77;;;6.07;;
36855;SDS011;22788;51.434;6.786;2022-08-01T05:04:05;6.72;;;4.72;;
36855;SDS011;22788;51.434;6.786;2022-08-01T05:06:31;7.00;;;5.38;;
36855;SDS011;22788;51.434;6.786;2022-08-01T05:08:58;5.93;;;4.82;;
36855;SDS011;22788;51.434;6.786;2022-08-01T05:11:24;6.75;;;5.15;;
36855;SDS011;22788;51.434;6.786;2022-08-01T05:13:50;6.40;;;4.65;;
36855;SDS011;22788;51.434;6.786;2022-08-01T05:16:16;6.03;;;4.45;;
36855;SDS011;22788;51.434;6.786;2022-08-01T05:18:42;5.10;;;4.47;;
36855;SDS011;22788;51.434;6.786;2022-08-01T05:21:08;5.88;;;4.47;;
36855;SDS011;22788;51.434;6.786;2022-08-01T05:23:34;6.78;;;5.70;;
36855;SDS011;22788;51.434;6.786;2022-08-01T05:26:02;4.82;;;4.30;;
36855;SDS011;22788;51.434;6.786;2022-08-01T05:28:28;5.57;;;5.00;;
36855;SDS011;22788;51.434;6.786;2022-08-01T05:30:54;6.95;;;4.72;;
36855;SDS011;22788;51.434;6.786;2022-08-01T05:33:20;6.07;;;4.93;;
36855;SDS011;22788;51.434;6.786;2022-08-01T05:35:46;5.95;;;4.05;;
36855;SDS011;22788;51.434;6.786;2022-08-01T05:38:12;8.38;;;5.10;;
36855;SDS011;22788;51.434;6.786;2022-08-01T05:40:38;6.45;;;4.82;;
36855;SDS011;22788;51.434;6.786;2022-08-01T05:43:06;6.13;;;5.35;;
36855;SDS011;22788;51.434;6.786;2022-08-01T05:45:32;6.13;;;4.75;;
36855;SDS011;22788;51.434;6.786;2022-08-01T05:47:58;4.85;;;4.32;;
36855;SDS011;22788;51.434;6.786;2022-08-01T05:50:24;6.95;;;4.95;;
36855;SDS011;22788;51.434;6.786;2022-08-01T05:52:50;6.78;;;4.63;;
36855;SDS011;22788;51.434;6.786;2022-08-01T05:55:16;7.22;;;4.95;;
36855;SDS011;22788;51.434;6.786;2022-08-01T05:57:42;5.70;;;4.65;;
36855;SDS011;22788;51.434;6.786;2022-08-01T06:00:11;8.55;;;4.50;;
36855;SDS011;22788;51.434;6.786;2022-08-01T06:02:39;5.30;;;4.55;;
36855;SDS011;22788;51.434;6.786;2022-08-01T06:05:06;8.60;;;5.85;;
36855;SDS011;22788;51.434;6.786;2022-08-01T06:07:33;4.00;;;3.60;;
36855;SDS011;22788;51.434;6.786;2022-08-01T06:09:59;4.93;;;4.18;;
36855;SDS011;22788;51.434;6.786;2022-08-01T06:12:25;5.80;;;4.35;;
36855;SDS011;22788;51.434;6.786;2022-08-01T06:14:51;6.32;;;4.55;;
36855;SDS011;22788;51.434;6.786;2022-08-01T06:17:18;5.95;;;4.20;;
36855;SDS011;22788;51.434;6.786;2022-08-01T06:19:44;5.47;;;3.83;;
36855;SDS011;22788;51.434;6.786;2022-08-01T06:22:10;4.65;;;3.75;;
36855;SDS011;22788;51.434;6.786;2022-08-01T06:24:37;4.38;;;3.70;;
36855;SDS011;22788;51.434;6.786;2022-08-01T06:27:03;5.50;;;3.83;;
36855;SDS011;22788;51.434;6.786;2022-08-01T06:29:30;5.25;;;4.60;;
36855;SDS011;22788;51.434;6.786;2022-08-01T06:31:56;4.68;;;4.07;;
36855;SDS011;22788;51.434;6.786;2022-08-01T06:34:24;5.00;;;3.80;;
36855;SDS011;22788;51.434;6.786;2022-08-01T06:36:50;5.68;;;4.50;;
36855;SDS011;22788;51.434;6.786;2022-08-01T06:39:17;5.57;;;4.00;;
36855;SDS011;22788;51.434;6.786;2022-08-01T06:41:43;4.40;;;4.00;;
36855;SDS011;22788;51.434;6.786;2022-08-01T06:44:10;4.93;;;3.90;;
36855;SDS011;22788;51.434;6.786;2022-08-01T06:46:36;4.20;;;3.80;;
36855;SDS011;22788;51.434;6.786;2022-08-01T06:49:02;6.75;;;4.00;;
36855;SDS011;22788;51.434;6.786;2022-08-01T06:51:30;4.25;;;3.63;;
36855;SDS011;22788;51.434;6.786;2022-08-01T06:53:57;5.72;;;4.80;;
36855;SDS011;22788;51.434;6.786;2022-08-01T06:56:23;5.70;;;4.55;;
36855;SDS011;22788;51.434;6.786;2022-08-01T06:58:49;4.53;;;3.38;;
36855;SDS011;22788;51.434;6.786;2022-08-01T07:01:16;5.32;;;4.07;;
36855;SDS011;22788;51.434;6.786;2022-08-01T07:03:42;4.18;;;3.75;;
36855;SDS011;22788;51.434;6.786;2022-08-01T07:06:09;4.10;;;3.30;;
36855;SDS011;22788;51.434;6.786;2022-08-01T07:08:37;4.80;;;3.97;;
36855;SDS011;22788;51.434;6.786;2022-08-01T07:11:03;5.32;;;3.67;;
36855;SDS011;22788;51.434;6.786;2022-08-01T07:13:30;3.88;;;3.30;;
36855;SDS011;22788;51.434;6.786;2022-08-01T07:15:56;4.32;;;3.40;;
36855;SDS011;22788;51.434;6.786;2022-08-01T07:18:23;3.42;;;3.13;;
36855;SDS011;22788;51.434;6.786;2022-08-01T07:20:49;4.00;;;3.55;;
36855;SDS011;22788;51.434;6.786;2022-08-01T07:23:16;3.35;;;3.05;;
36855;SDS011;22788;51.434;6.786;2022-08-01T07:25:44;5.28;;;3.65;;
36855;SDS011;22788;51.434;6.786;2022-08-01T07:28:10;4.75;;;3.30;;
36855;SDS011;22788;51.434;6.786;2022-08-01T07:30:36;5.10;;;3.00;;
36855;SDS011;22788;51.434;6.786;2022-08-01T07:33:03;8.40;;;3.13;;
36855;SDS011;22788;51.434;6.786;2022-08-01T07:35:29;3.97;;;3.30;;
36855;SDS011;22788;51.434;6.786;2022-08-01T07:37:56;4.85;;;3.35;;
36855;SDS011;22788;51.434;6.786;2022-08-01T07:40:22;4.75;;;3.22;;
36855;SDS011;22788;51.434;6.786;2022-08-01T07:42:50;5.35;;;3.90;;
36855;SDS011;22788;51.434;6.786;2022-08-01T07:45:16;3.28;;;2.92;;
36855;SDS011;22788;51.434;6.786;2022-08-01T07:47:43;3.25;;;2.95;;
36855;SDS011;22788;51.434;6.786;2022-08-01T07:50:10;4.45;;;3.28;;
36855;SDS011;22788;51.434;6.786;2022-08-01T07:52:36;6.60;;;3.78;;
36855;SDS011;22788;51.434;6.786;2022-08-01T07:55:03;4.35;;;3.13;;
36855;SDS011;22788;51.434;6.786;2022-08-01T07:57:29;5.00;;;3.28;;
36855;SDS011;22788;51.434;6.786;2022-08-01T07:59:57;5.05;;;3.72;;
36855;SDS011;22788;51.434;6.786;2022-08-01T08:02:24;4.38;;;3.30;;
36855;SDS011;22788;51.434;6.786;2022-08-01T08:04:50;3.63;;;2.90;;
36855;SDS011;22788;51.434;6.786;2022-08-01T08:07:16;4.40;;;3.13;;
36855;SDS011;22788;51.434;6.786;2022-08-01T08:09:43;3.88;;;2.80;;
36855;SDS011;22788;51.434;6.786;2022-08-01T08:12:09;3.42;;;2.70;;
36855;SDS011;22788;51.434;6.786;2022-08-01T08:14:36;3.70;;;3.00;;
36855;SDS011;22788;51.434;6.786;2022-08-01T08:17:03;4.75;;;3.03;;
36855;SDS011;22788;51.434;6.786;2022-08-01T08:19:30;3.85;;;3.20;;
36855;SDS011;22788;51.434;6.786;2022-08-01T08:21:56;4.10;;;3.15;;
36855;SDS011;22788;51.434;6.786;2022-08-01T08:24:23;3.45;;;2.40;;
36855;SDS011;22788;51.434;6.786;2022-08-01T08:26:50;7.65;;;2.63;;
36855;SDS011;22788;51.434;6.786;2022-08-01T08:29:16;4.00;;;2.60;;
36855;SDS011;22788;51.434;6.786;2022-08-01T08:31:43;3.65;;;2.40;;
36855;SDS011;22788;51.434;6.786;2022-08-01T08:34:10;3.97;;;2.35;;
36855;SDS011;22788;51.434;6.786;2022-08-01T08:36:37;3.03;;;2.08;;
36855;SDS011;22788;51.434;6.786;2022-08-01T08:39:03;2.28;;;2.00;;
36855;SDS011;22788;51.434;6.786;2022-08-01T08:41:30;2.55;;;2.35;;
36855;SDS011;22788;51.434;6.786;2022-08-01T08:43:56;2.72;;;2.08;;
36855;SDS011;22788;51.434;6.786;2022-08-01T08:46:22;2.65;;;1.95;;
36855;SDS011;22788;51.434;6.786;2022-08-01T08:48:49;2.45;;;1.80;;
36855;SDS011;22788;51.434;6.786;2022-08-01T08:51:18;2.38;;;2.13;;
36855;SDS011;22788;51.434;6.786;2022-08-01T08:53:45;1.65;;;1.55;;
36855;SDS011;22788;51.434;6.786;2022-08-01T08:56:12;2.88;;;1.98;;
36855;SDS011;22788;51.434;6.786;2022-08-01T08:58:39;2.65;;;2.10;;
36855;SDS011;22788;51.434;6.786;2022-08-01T09:01:06;2.97;;;2.38;;
36855;SDS011;22788;51.434;6.786;2022-08-01T09:03:33;2.20;;;1.60;;
36855;SDS011;22788;51.434;6.786;2022-08-01T09:05:59;4.97;;;1.80;;
36855;SDS011;22788;51.434;6.786;2022-08-01T09:08:27;4.35;;;2.30;;
36855;SDS011;22788;51.434;6.786;2022-08-01T09:10:54;2.30;;;2.10;;
36855;SDS011;22788;51.434;6.786;2022-08-01T09:13:20;2.20;;;2.00;;
36855;SDS011;22788;51.434;6.786;2022-08-01T09:15:47;2.42;;;2.00;;
36855;SDS011;22788;51.434;6.786;2022-08-01T09:18:30;3.30;;;2.03;;
36855;SDS011;22788;51.434;6.786;2022-08-01T09:23:49;4.22;;;2.17;;
36855;SDS011;22788;51.434;6.786;2022-08-01T09:26:17;3.67;;;2.13;;
36855;SDS011;22788;51.434;6.786;2022-08-01T09:28:44;3.03;;;2.08;;
36855;SDS011;22788;51.434;6.786;2022-08-01T09:31:11;3.88;;;1.88;;
36855;SDS011;22788;51.434;6.786;2022-08-01T09:33:51;3.55;;;1.90;;
36855;SDS011;22788;51.434;6.786;2022-08-01T09:36:19;2.17;;;1.88;;
36855;SDS011;22788;51.434;6.786;2022-08-01T09:38:45;3.28;;;1.65;;
36855;SDS011;22788;51.434;6.786;2022-08-01T09:41:13;2.58;;;2.00;;
36855;SDS011;22788;51.434;6.786;2022-08-01T09:43:39;2.22;;;2.03;;
36855;SDS011;22788;51.434;6.786;2022-08-01T09:46:13;2.50;;;2.20;;
36855;SDS011;22788;51.434;6.786;2022-08-01T09:48:39;2.63;;;2.25;;
36855;SDS011;22788;51.434;6.786;2022-08-01T09:51:27;2.05;;;1.85;;
36855;SDS011;22788;51.434;6.786;2022-08-01T09:53:54;2.35;;;1.88;;
36855;SDS011;22788;51.434;6.786;2022-08-01T09:56:22;4.57;;;2.30;;
36855;SDS011;22788;51.434;6.786;2022-08-01T09:58:49;2.72;;;1.95;;
36855;SDS011;22788;51.434;6.786;2022-08-01T10:01:16;3.22;;;2.30;;
36855;SDS011;22788;51.434;6.786;2022-08-01T10:03:43;2.75;;;2.40;;
36855;SDS011;22788;51.434;6.786;2022-08-01T10:06:18;4.53;;;1.90;;
36855;SDS011;22788;51.434;6.786;2022-08-01T10:08:45;3.75;;;2.40;;
36855;SDS011;22788;51.434;6.786;2022-08-01T10:11:11;2.25;;;2.05;;
36855;SDS011;22788;51.434;6.786;2022-08-01T10:13:39;2.42;;;2.10;;
36855;SDS011;22788;51.434;6.786;2022-08-01T10:16:06;1.83;;;1.70;;
36855;SDS011;22788;51.434;6.786;2022-08-01T10:18:33;2.65;;;2.30;;
36855;SDS011;22788;51.434;6.786;2022-08-01T10:21:00;2.40;;;2.10;;
36855;SDS011;22788;51.434;6.786;2022-08-01T10:23:30;4.80;;;2.20;;
36855;SDS011;22788;51.434;6.786;2022-08-01T10:26:00;2.00;;;1.70;;
36855;SDS011;22788;51.434;6.786;2022-08-01T10:28:26;2.35;;;1.80;;
36855;SDS011;22788;51.434;6.786;2022-08-01T10:30:57;2.85;;;2.05;;
36855;SDS011;22788;51.434;6.786;2022-08-01T10:33:24;2.60;;;1.67;;
36855;SDS011;22788;51.434;6.786;2022-08-01T10:35:51;2.53;;;1.92;;
36855;SDS011;22788;51.434;6.786;2022-08-01T10:38:17;1.92;;;1.70;;
36855;SDS011;22788;51.434;6.786;2022-08-01T10:40:44;2.40;;;1.83;;
36855;SDS011;22788;51.434;6.786;2022-08-01T10:43:10;2.90;;;2.00;;
36855;SDS011;22788;51.434;6.786;2022-08-01T10:45:36;2.90;;;2.00;;
36855;SDS011;22788;51.434;6.786;2022-08-01T10:48:05;5.63;;;2.47;;
36855;SDS011;22788;51.434;6.786;2022-08-01T10:50:38;2.47;;;2.08;;
36855;SDS011;22788;51.434;6.786;2022-08-01T10:53:09;5.22;;;2.53;;
36855;SDS011;22788;51.434;6.786;2022-08-01T10:55:49;3.28;;;2.00;;
36855;SDS011;22788;51.434;6.786;2022-08-01T10:58:24;2.80;;;1.90;;
36855;SDS011;22788;51.434;6.786;2022-08-01T11:03:37;3.85;;;2.33;;
36855;SDS011;22788;51.434;6.786;2022-08-01T11:06:04;5.57;;;2.20;;
36855;SDS011;22788;51.434;6.786;2022-08-01T11:08:30;3.53;;;2.80;;
36855;SDS011;22788;51.434;6.786;2022-08-01T11:10:59;3.55;;;2.53;;
36855;SDS011;22788;51.434;6.786;2022-08-01T11:18:50;3.13;;;2.42;;
36855;SDS011;22788;51.434;6.786;2022-08-01T11:21:17;3.15;;;1.80;;
36855;SDS011;22788;51.434;6.786;2022-08-01T11:23:46;2.38;;;1.95;;
36855;SDS011;22788;51.434;6.786;2022-08-01T11:26:14;5.35;;;2.50;;
36855;SDS011;22788;51.434;6.786;2022-08-01T11:28:41;4.65;;;2.17;;
36855;SDS011;22788;51.434;6.786;2022-08-01T11:31:27;3.45;;;2.35;;
36855;SDS011;22788;51.434;6.786;2022-08-01T11:33:55;3.25;;;1.88;;
36855;SDS011;22788;51.434;6.786;2022-08-01T11:36:22;4.03;;;1.90;;
36855;SDS011;22788;51.434;6.786;2022-08-01T11:38:49;2.45;;;1.92;;
36855;SDS011;22788;51.434;6.786;2022-08-01T11:41:16;2.50;;;1.83;;
36855;SDS011;22788;51.434;6.786;2022-08-01T11:43:56;1.88;;;1.63;;
36855;SDS011;22788;51.434;6.786;2022-08-01T11:49:43;2.35;;;1.50;;
36855;SDS011;22788;51.434;6.786;2022-08-01T11:52:12;3.55;;;1.77;;
36855;SDS011;22788;51.434;6.786;2022-08-01T11:54:39;2.75;;;1.67;;
36855;SDS011;22788;51.434;6.786;2022-08-01T11:57:07;2.42;;;1.63;;
36855;SDS011;22788;51.434;6.786;2022-08-01T11:59:37;1.58;;;1.30;;
36855;SDS011;22788;51.434;6.786;2022-08-01T12:02:05;3.83;;;1.58;;
36855;SDS011;22788;51.434;6.786;2022-08-01T12:04:48;2.30;;;2.05;;
36855;SDS011;22788;51.434;6.786;2022-08-01T12:07:15;3.78;;;1.65;;
36855;SDS011;22788;51.434;6.786;2022-08-01T12:09:41;3.53;;;1.65;;
36855;SDS011;22788;51.434;6.786;2022-08-01T12:12:08;3.05;;;1.75;;
36855;SDS011;22788;51.434;6.786;2022-08-01T12:14:35;3.92;;;2.00;;
36855;SDS011;22788;51.434;6.786;2022-08-01T12:17:01;3.03;;;2.10;;
36855;SDS011;22788;51.434;6.786;2022-08-01T12:19:28;2.80;;;1.80;;
36855;SDS011;22788;51.434;6.786;2022-08-01T12:22:08;1.80;;;1.55;;
36855;SDS011;22788;51.434;6.786;2022-08-01T12:24:35;2.58;;;1.60;;
36855;SDS011;22788;51.434;6.786;2022-08-01T12:27:02;2.47;;;1.38;;
36855;SDS011;22788;51.434;6.786;2022-08-01T12:29:33;3.28;;;1.67;;
36855;SDS011;22788;51.434;6.786;2022-08-01T12:31:59;2.90;;;1.70;;
36855;SDS011;22788;51.434;6.786;2022-08-01T12:34:26;4.47;;;1.60;;
36855;SDS011;22788;51.434;6.786;2022-08-01T12:36:52;3.65;;;1.80;;
36855;SDS011;22788;51.434;6.786;2022-08-01T12:39:21;2.08;;;1.80;;
36855;SDS011;22788;51.434;6.786;2022-08-01T12:41:54;2.20;;;1.70;;
36855;SDS011;22788;51.434;6.786;2022-08-01T12:44:20;3.30;;;1.80;;
36855;SDS011;22788;51.434;6.786;2022-08-01T12:46:46;1.65;;;1.35;;
36855;SDS011;22788;51.434;6.786;2022-08-01T12:49:12;1.90;;;1.42;;
36855;SDS011;22788;51.434;6.786;2022-08-01T12:51:38;2.28;;;1.38;;
36855;SDS011;22788;51.434;6.786;2022-08-01T12:54:05;2.65;;;1.48;;
36855;SDS011;22788;51.434;6.786;2022-08-01T12:56:32;3.47;;;1.60;;
36855;SDS011;22788;51.434;6.786;2022-08-01T12:58:59;2.72;;;1.90;;
36855;SDS011;22788;51.434;6.786;2022-08-01T13:01:25;1.73;;;1.63;;
36855;SDS011;22788;51.434;6.786;2022-08-01T13:03:59;1.60;;;1.50;;
36855;SDS011;22788;51.434;6.786;2022-08-01T13:06:27;2.63;;;1.60;;
36855;SDS011;22788;51.434;6.786;2022-08-01T13:08:55;1.58;;;1.45;;
36855;SDS011;22788;51.434;6.786;2022-08-01T13:11:29;2.90;;;1.50;;
36855;SDS011;22788;51.434;6.786;2022-08-01T13:13:57;3.13;;;1.65;;
36855;SDS011;22788;51.434;6.786;2022-08-01T13:16:23;3.80;;;1.60;;
36855;SDS011;22788;51.434;6.786;2022-08-01T13:18:51;1.65;;;1.40;;
36855;SDS011;22788;51.434;6.786;2022-08-01T13:21:18;3.72;;;1.60;;
36855;SDS011;22788;51.434;6.786;2022-08-01T13:23:59;2.58;;;1.60;;
36855;SDS011;22788;51.434;6.786;2022-08-01T13:26:37;1.70;;;1.48;;
36855;SDS011;22788;51.434;6.786;2022-08-01T13:29:08;3.72;;;2.10;;
36855;SDS011;22788;51.434;6.786;2022-08-01T13:31:36;2.65;;;1.75;;
36855;SDS011;22788;51.434;6.786;2022-08-01T13:34:04;1.95;;;1.75;;
36855;SDS011;22788;51.434;6.786;2022-08-01T13:36:30;1.50;;;1.40;;
36855;SDS011;22788;51.434;6.786;2022-08-01T13:38:56;2.42;;;1.60;;
36855;SDS011;22788;51.434;6.786;2022-08-01T13:41:23;6.63;;;1.67;;
36855;SDS011;22788;51.434;6.786;2022-08-01T13:43:49;1.77;;;1.60;;
36855;SDS011;22788;51.434;6.786;2022-08-01T13:46:17;4.68;;;1.95;;
36855;SDS011;22788;51.434;6.786;2022-08-01T13:48:43;2.05;;;1.77;;
36855;SDS011;22788;51.434;6.786;2022-08-01T13:51:09;1.60;;;1.50;;
36855;SDS011;22788;51.434;6.786;2022-08-01T13:53:35;2.17;;;1.50;;
36855;SDS011;22788;51.434;6.786;2022-08-01T13:56:02;2.58;;;1.42;;
36855;SDS011;22788;51.434;6.786;2022-08-01T13:58:28;9.43;;;1.70;;
36855;SDS011;22788;51.434;6.786;2022-08-01T14:00:54;6.65;;;1.60;;
36855;SDS011;22788;51.434;6.786;2022-08-01T14:03:22;2.85;;;1.70;;
36855;SDS011;22788;51.434;6.786;2022-08-01T14:05:48;2.40;;;1.60;;
36855;SDS011;22788;51.434;6.786;2022-08-01T14:08:14;1.70;;;1.40;;
36855;SDS011;22788;51.434;6.786;2022-08-01T14:10:41;10.40;;;1.70;;
36855;SDS011;22788;51.434;6.786;2022-08-01T14:13:07;5.00;;;1.55;;
36855;SDS011;22788;51.434;6.786;2022-08-01T14:15:33;2.97;;;1.63;;
36855;SDS011;22788;51.434;6.786;2022-08-01T14:17:59;2.05;;;1.50;;
36855;SDS011;22788;51.434;6.786;2022-08-01T14:20:26;6.40;;;2.10;;
36855;SDS011;22788;51.434;6.786;2022-08-01T14:22:52;3.15;;;1.92;;
36855;SDS011;22788;51.434;6.786;2022-08-01T14:25:19;10.23;;;7.05;;
36855;SDS011;22788;51.434;6.786;2022-08-01T14:27:45;2.63;;;1.50;;
36855;SDS011;22788;51.434;6.786;2022-08-01T14:30:11;2.75;;;1.90;;
36855;SDS011;22788;51.434;6.786;2022-08-01T14:32:38;4.90;;;2.05;;
36855;SDS011;22788;51.434;6.786;2022-08-01T14:35:05;2.40;;;1.75;;
36855;SDS011;22788;51.434;6.786;2022-08-01T14:37:33;4.03;;;2.17;;
36855;SDS011;22788;51.434;6.786;2022-08-01T14:39:59;3.42;;;2.20;;
36855;SDS011;22788;51.434;6.786;2022-08-01T14:42:26;1.98;;;1.88;;
36855;SDS011;22788;51.434;6.786;2022-08-01T14:44:52;3.55;;;1.98;;
36855;SDS011;22788;51.434;6.786;2022-08-01T14:47:18;1.83;;;1.70;;
36855;SDS011;22788;51.434;6.786;2022-08-01T14:49:44;3.78;;;1.77;;
36855;SDS011;22788;51.434;6.786;2022-08-01T14:52:10;7.03;;;2.20;;
36855;SDS011;22788;51.434;6.786;2022-08-01T14:54:37;3.20;;;1.98;;
36855;SDS011;22788;51.434;6.786;2022-08-01T14:57:03;3.97;;;1.77;;
36855;SDS011;22788;51.434;6.786;2022-08-01T14:59:29;3.58;;;1.90;;
36855;SDS011;22788;51.434;6.786;2022-08-01T15:01:55;4.07;;;1.83;;
36855;SDS011;22788;51.434;6.786;2022-08-01T15:04:21;2.92;;;2.30;;
36855;SDS011;22788;51.434;6.786;2022-08-01T15:06:48;5.20;;;2.53;;